createdAt,value
2024-01-24T00:00:44.176Z,2.80
2024-01-24T00:03:10.739Z,2.90
2024-01-24T00:05:37.235Z,2.77
2024-01-24T00:08:03.798Z,3.60
2024-01-24T00:10:30.153Z,3.10
2024-01-24T00:12:56.829Z,2.53
2024-01-24T00:15:23.512Z,2.90
2024-01-24T00:17:50.418Z,2.70
2024-01-24T00:20:17.093Z,2.57
2024-01-24T00:22:43.824Z,2.53
2024-01-24T00:25:10.483Z,2.53
2024-01-24T00:27:37.037Z,2.87
2024-01-24T00:30:05.273Z,2.73
2024-01-24T00:32:31.824Z,2.63
2024-01-24T00:34:59.161Z,2.50
2024-01-24T00:37:25.643Z,2.37
2024-01-24T00:39:52.327Z,2.10
2024-01-24T00:42:19.174Z,2.60
2024-01-24T00:44:47.941Z,2.00
2024-01-24T00:47:14.504Z,1.97
2024-01-24T00:49:41.048Z,1.77
2024-01-24T00:52:07.569Z,2.53
2024-01-24T00:54:34.032Z,2.53
2024-01-24T00:57:00.831Z,1.90
2024-01-24T00:59:28.002Z,1.70
2024-01-24T01:01:54.490Z,1.63
2024-01-24T01:04:21.271Z,2.10
2024-01-24T01:06:48.264Z,1.97
2024-01-24T01:09:14.999Z,2.10
2024-01-24T01:11:41.451Z,1.60
2024-01-24T01:14:07.930Z,1.60
2024-01-24T01:16:34.697Z,1.70
2024-01-24T01:19:01.415Z,1.83
2024-01-24T01:21:28.201Z,1.60
2024-01-24T01:23:54.832Z,1.73
2024-01-24T01:26:21.597Z,1.30
2024-01-24T01:28:48.050Z,2.50
2024-01-24T01:31:14.763Z,1.47
2024-01-24T01:33:41.330Z,1.40
2024-01-24T01:36:17.414Z,1.43
2024-01-24T01:38:49.606Z,1.50
2024-01-24T01:41:16.470Z,1.10
2024-01-24T01:43:44.424Z,1.20
2024-01-24T01:46:20.457Z,1.27
2024-01-24T01:48:47.275Z,2.50
2024-01-24T01:51:14.857Z,1.00
2024-01-24T01:53:41.716Z,1.87
2024-01-24T01:56:09.934Z,1.40
2024-01-24T01:58:37.444Z,1.40
2024-01-24T02:01:05.612Z,1.40
2024-01-24T02:03:37.724Z,1.17
2024-01-24T02:06:04.579Z,1.10
2024-01-24T02:08:33.691Z,1.17
2024-01-24T02:11:00.355Z,1.10
2024-01-24T02:13:32.955Z,1.13
2024-01-24T02:16:09.378Z,1.50
2024-01-24T02:18:36.010Z,1.20
2024-01-24T02:21:02.984Z,1.23
2024-01-24T02:23:31.464Z,1.10
2024-01-24T02:25:59.163Z,0.90
2024-01-24T02:28:26.006Z,1.20
2024-01-24T02:30:52.797Z,1.00
2024-01-24T02:33:19.636Z,1.20
2024-01-24T02:35:46.383Z,1.00
2024-01-24T02:38:12.902Z,1.20
2024-01-24T02:40:39.316Z,1.43
2024-01-24T02:43:06.060Z,1.00
2024-01-24T02:45:33.532Z,1.27
2024-01-24T02:48:00.194Z,1.37
2024-01-24T02:50:27.202Z,1.10
2024-01-24T02:52:53.651Z,1.20
2024-01-24T02:55:20.327Z,1.23
2024-01-24T02:57:46.913Z,1.03
2024-01-24T03:00:14.538Z,0.97
2024-01-24T03:02:41.472Z,0.90
2024-01-24T03:05:10.278Z,1.30
2024-01-24T03:07:37.364Z,1.40
2024-01-24T03:10:04.178Z,0.80
2024-01-24T03:12:31.067Z,1.20
2024-01-24T03:14:57.785Z,1.20
2024-01-24T03:17:24.440Z,1.23
2024-01-24T03:19:51.608Z,1.50
2024-01-24T03:22:18.624Z,1.20
2024-01-24T03:24:45.339Z,1.23
2024-01-24T03:27:12.620Z,1.10
2024-01-24T03:29:39.245Z,1.40
2024-01-24T03:32:06.450Z,1.40
2024-01-24T03:34:32.955Z,1.10
2024-01-24T03:36:59.618Z,1.37
2024-01-24T03:39:26.192Z,1.03
2024-01-24T03:41:52.757Z,1.30
2024-01-24T03:44:19.500Z,1.17
2024-01-24T03:46:45.955Z,1.17
2024-01-24T03:49:12.984Z,1.20
2024-01-24T03:51:40.087Z,0.97
2024-01-24T03:54:07.820Z,1.23
2024-01-24T03:56:34.339Z,1.10
2024-01-24T03:59:00.818Z,1.23
2024-01-24T04:01:27.780Z,1.10
2024-01-24T04:03:54.496Z,1.23
2024-01-24T04:06:21.134Z,1.40
2024-01-24T04:08:47.957Z,1.30
2024-01-24T04:11:14.756Z,1.37
2024-01-24T04:13:44.278Z,1.30
2024-01-24T04:16:10.750Z,1.30
2024-01-24T04:18:37.362Z,1.30
2024-01-24T04:21:04.083Z,1.53
2024-01-24T04:23:30.856Z,1.30
2024-01-24T04:25:58.253Z,1.20
2024-01-24T04:28:24.692Z,1.50
2024-01-24T04:30:51.253Z,1.40
2024-01-24T04:33:18.453Z,1.40
2024-01-24T04:35:45.147Z,1.50
2024-01-24T04:38:11.577Z,1.53
2024-01-24T04:40:38.046Z,1.60
2024-01-24T04:43:04.909Z,1.20
2024-01-24T04:45:31.678Z,1.60
2024-01-24T04:47:58.469Z,1.30
2024-01-24T04:50:25.491Z,1.40
2024-01-24T04:52:52.047Z,1.20
2024-01-24T04:55:18.616Z,1.70
2024-01-24T04:57:45.629Z,1.67
2024-01-24T05:00:13.910Z,1.17
2024-01-24T05:02:41.129Z,1.40
2024-01-24T05:05:08.588Z,1.50
2024-01-24T05:07:36.047Z,1.43
2024-01-24T05:10:04.696Z,1.23
2024-01-24T05:12:31.929Z,1.20
2024-01-24T05:14:58.860Z,1.23
2024-01-24T05:17:25.511Z,1.07
2024-01-24T05:19:51.981Z,1.27
2024-01-24T05:22:19.128Z,1.13
2024-01-24T05:24:46.633Z,1.30
2024-01-24T05:27:13.477Z,0.97
2024-01-24T05:29:40.814Z,1.00
2024-01-24T05:32:07.735Z,1.00
2024-01-24T05:34:35.171Z,1.00
2024-01-24T05:37:01.884Z,1.30
2024-01-24T05:39:28.513Z,1.23
2024-01-24T05:41:55.019Z,1.10
2024-01-24T05:44:22.007Z,1.17
2024-01-24T05:46:49.230Z,0.80
2024-01-24T05:49:16.528Z,1.10
2024-01-24T05:51:44.064Z,1.00
2024-01-24T05:54:11.085Z,1.30
2024-01-24T05:56:39.696Z,1.20
2024-01-24T05:59:06.140Z,1.00
2024-01-24T06:01:32.947Z,1.30
2024-01-24T06:03:59.574Z,0.90
2024-01-24T06:06:26.510Z,0.90
2024-01-24T06:08:53.994Z,1.07
2024-01-24T06:11:20.451Z,1.00
2024-01-24T06:13:47.163Z,1.13
2024-01-24T06:18:54.551Z,0.90
2024-01-24T06:21:21.630Z,1.10
2024-01-24T06:23:48.005Z,0.73
2024-01-24T06:26:15.133Z,0.90
2024-01-24T06:28:41.501Z,0.73
2024-01-24T06:31:07.968Z,1.00
2024-01-24T06:33:34.432Z,0.60
2024-01-24T06:36:01.572Z,0.80
2024-01-24T06:38:27.949Z,0.77
2024-01-24T06:40:54.351Z,1.17
2024-01-24T06:43:21.639Z,0.80
2024-01-24T06:45:48.282Z,1.00
2024-01-24T06:48:14.714Z,0.80
2024-01-24T06:50:41.199Z,0.70
2024-01-24T06:53:11.344Z,0.80
2024-01-24T06:55:38.062Z,0.90
2024-01-24T06:58:06.372Z,0.90
2024-01-24T07:00:33.744Z,0.70
2024-01-24T07:03:01.494Z,0.80
2024-01-24T07:05:28.448Z,1.00
2024-01-24T07:07:54.805Z,0.90
2024-01-24T07:10:21.165Z,0.83
2024-01-24T07:12:48.180Z,1.00
2024-01-24T07:15:17.295Z,0.93
2024-01-24T07:17:44.508Z,0.90
2024-01-24T07:20:11.308Z,0.90
2024-01-24T07:22:38.187Z,1.00
2024-01-24T07:25:07.976Z,1.07
2024-01-24T07:27:36.011Z,1.20
2024-01-24T07:30:05.278Z,1.20
2024-01-24T07:32:32.579Z,1.10
2024-01-24T07:34:59.862Z,1.70
2024-01-24T07:37:26.520Z,1.77
2024-01-24T07:39:53.009Z,1.60
2024-01-24T07:42:19.492Z,2.00
2024-01-24T07:44:45.879Z,1.83
2024-01-24T07:47:12.301Z,1.87
2024-01-24T07:49:39.529Z,2.37
2024-01-24T07:52:06.487Z,1.90
2024-01-24T07:54:33.398Z,1.87
2024-01-24T07:56:59.829Z,1.80
2024-01-24T07:59:26.749Z,2.53
2024-01-24T08:01:53.302Z,2.23
2024-01-24T08:04:20.231Z,2.00
2024-01-24T08:06:48.703Z,2.53
2024-01-24T08:09:15.667Z,2.57
2024-01-24T08:11:42.747Z,1.97
2024-01-24T08:14:09.850Z,2.00
2024-01-24T08:16:36.381Z,2.07
2024-01-24T08:19:03.320Z,1.80
2024-01-24T08:21:29.880Z,2.30
2024-01-24T08:23:56.592Z,2.17
2024-01-24T08:26:23.025Z,2.10
2024-01-24T08:28:49.896Z,2.17
2024-01-24T08:31:16.534Z,2.00
2024-01-24T08:33:43.056Z,1.90
2024-01-24T08:36:10.285Z,2.80
2024-01-24T08:38:36.928Z,1.77
2024-01-24T08:41:05.173Z,2.10
2024-01-24T08:43:31.557Z,2.30
2024-01-24T08:45:58.832Z,2.20
2024-01-24T08:48:26.200Z,2.00
2024-01-24T08:50:53.262Z,2.10
2024-01-24T08:53:19.641Z,2.03
2024-01-24T08:55:46.228Z,1.70
2024-01-24T08:58:12.905Z,2.33
2024-01-24T09:00:40.281Z,2.30
2024-01-24T09:03:06.730Z,1.60
2024-01-24T09:05:33.350Z,1.60
2024-01-24T09:08:00.871Z,2.10
2024-01-24T09:10:27.843Z,1.60
2024-01-24T09:12:55.379Z,2.07
2024-01-24T09:15:21.882Z,1.97
2024-01-24T09:17:49.306Z,1.53
2024-01-24T09:20:17.533Z,1.50
2024-01-24T09:22:44.386Z,2.10
2024-01-24T09:25:13.026Z,1.83
2024-01-24T09:27:41.470Z,1.93
2024-01-24T09:30:08.147Z,1.67
2024-01-24T09:32:34.549Z,1.87
2024-01-24T09:35:01.312Z,2.23
2024-01-24T09:37:28.463Z,1.93
2024-01-24T09:39:55.770Z,2.43
2024-01-24T09:42:24.921Z,2.40
2024-01-24T09:44:52.252Z,3.20
2024-01-24T09:47:21.031Z,2.27
2024-01-24T09:49:47.788Z,2.23
2024-01-24T09:52:14.943Z,2.17
2024-01-24T09:54:42.187Z,2.57
2024-01-24T09:57:09.233Z,3.70
2024-01-24T09:59:35.697Z,2.90
2024-01-24T10:02:02.131Z,3.33
2024-01-24T10:04:29.307Z,3.23
2024-01-24T10:06:56.271Z,2.83
2024-01-24T10:09:22.792Z,2.90
2024-01-24T10:11:49.206Z,2.40
2024-01-24T10:14:16.042Z,2.70
2024-01-24T10:16:43.455Z,2.83
2024-01-24T10:19:10.410Z,3.13
2024-01-24T10:24:03.558Z,3.60
2024-01-24T10:26:31.036Z,3.40
2024-01-24T10:28:57.739Z,3.40
2024-01-24T10:31:27.032Z,3.77
2024-01-24T10:33:59.900Z,3.57
2024-01-24T10:36:32.352Z,3.53
2024-01-24T10:39:02.792Z,3.77
2024-01-24T10:41:30.729Z,3.63
2024-01-24T10:43:57.922Z,4.07
2024-01-24T10:46:24.697Z,3.63
2024-01-24T10:48:51.834Z,3.97
2024-01-24T10:51:19.297Z,3.83
2024-01-24T10:53:46.101Z,4.23
2024-01-24T10:56:14.696Z,3.60
2024-01-24T10:58:41.690Z,3.57
2024-01-24T11:01:08.306Z,3.87
2024-01-24T11:03:35.116Z,3.90
2024-01-24T11:06:04.053Z,3.60
2024-01-24T11:08:43.585Z,4.33
2024-01-24T11:11:14.930Z,3.80
2024-01-24T11:13:43.672Z,4.37
2024-01-24T11:16:30.691Z,4.13
2024-01-24T11:19:01.207Z,3.47
2024-01-24T11:21:32.744Z,4.27
2024-01-24T11:24:00.108Z,3.67
2024-01-24T11:26:26.472Z,3.73
2024-01-24T11:29:05.721Z,4.47
2024-01-24T11:31:38.748Z,3.73
2024-01-24T11:34:13.004Z,3.77
2024-01-24T11:36:49.586Z,4.10
2024-01-24T11:39:31.854Z,3.47
2024-01-24T11:42:16.937Z,3.73
2024-01-24T11:44:43.341Z,3.80
2024-01-24T11:47:10.835Z,3.77
2024-01-24T11:49:37.313Z,3.90
2024-01-24T11:52:03.948Z,4.10
2024-01-24T11:54:30.943Z,4.20
2024-01-24T11:56:59.042Z,4.10
2024-01-24T11:59:25.471Z,4.10
2024-01-24T12:01:51.961Z,4.73
2024-01-24T12:04:18.497Z,4.17
2024-01-24T12:06:45.186Z,3.90
2024-01-24T12:09:13.224Z,3.37
2024-01-24T12:11:39.566Z,4.43
2024-01-24T12:14:05.969Z,3.97
2024-01-24T12:16:32.877Z,4.50
2024-01-24T12:18:59.582Z,3.43
2024-01-24T12:21:28.532Z,4.17
2024-01-24T12:23:55.372Z,4.00
2024-01-24T12:26:21.874Z,3.77
2024-01-24T12:28:48.860Z,4.33
2024-01-24T12:31:15.574Z,3.30
2024-01-24T12:33:43.780Z,3.30
2024-01-24T12:36:11.586Z,3.43
2024-01-24T12:38:38.170Z,3.50
2024-01-24T12:41:05.206Z,4.23
2024-01-24T12:43:31.655Z,3.50
2024-01-24T12:46:04.615Z,3.23
2024-01-24T12:48:31.348Z,3.43
2024-01-24T12:50:57.876Z,3.50
2024-01-24T12:53:24.389Z,3.60
2024-01-24T12:55:51.606Z,4.23
2024-01-24T12:58:18.755Z,4.10
2024-01-24T13:00:45.489Z,4.03
2024-01-24T13:03:11.918Z,3.47
2024-01-24T13:05:42.984Z,3.90
2024-01-24T13:08:14.087Z,3.80
2024-01-24T13:10:45.241Z,5.00
2024-01-24T13:13:12.525Z,4.43
2024-01-24T13:15:40.193Z,4.67
2024-01-24T13:18:08.191Z,4.03
2024-01-24T13:20:34.610Z,4.47
2024-01-24T13:23:00.997Z,4.67
2024-01-24T13:25:27.794Z,3.73
2024-01-24T13:27:54.552Z,3.60
2024-01-24T13:30:21.016Z,3.87
2024-01-24T13:32:47.503Z,4.27
2024-01-24T13:35:14.195Z,3.63
2024-01-24T13:37:41.127Z,4.13
2024-01-24T13:40:10.079Z,3.67
2024-01-24T13:42:36.693Z,4.47
2024-01-24T13:45:03.777Z,4.13
2024-01-24T13:47:30.265Z,4.10
2024-01-24T13:49:56.771Z,3.70
2024-01-24T13:52:23.440Z,4.60
2024-01-24T13:54:49.847Z,3.70
2024-01-24T13:57:16.600Z,4.27
2024-01-24T13:59:43.169Z,3.90
2024-01-24T14:02:09.948Z,4.17
2024-01-24T14:04:36.545Z,3.97
2024-01-24T14:07:03.403Z,4.27
2024-01-24T14:09:29.862Z,3.90
2024-01-24T14:11:56.978Z,4.53
2024-01-24T14:14:28.578Z,4.17
2024-01-24T14:16:57.990Z,4.33
2024-01-24T14:19:25.315Z,4.40
2024-01-24T14:21:52.752Z,4.77
2024-01-24T14:24:19.298Z,5.37
2024-01-24T14:26:45.668Z,3.53
2024-01-24T14:29:12.051Z,5.00
2024-01-24T14:31:39.226Z,5.00
2024-01-24T14:34:05.822Z,4.53
2024-01-24T14:36:36.208Z,4.20
2024-01-24T14:39:05.067Z,4.87
2024-01-24T14:41:31.764Z,4.83
2024-01-24T14:43:58.218Z,4.83
2024-01-24T14:46:25.838Z,4.83
2024-01-24T14:48:52.508Z,4.27
2024-01-24T14:51:18.986Z,4.07
2024-01-24T14:53:45.404Z,5.27
2024-01-24T14:56:11.902Z,4.37
2024-01-24T14:58:38.297Z,4.20
2024-01-24T15:01:04.839Z,4.37
2024-01-24T15:03:31.297Z,4.33
2024-01-24T15:05:57.858Z,4.60
2024-01-24T15:08:25.870Z,4.83
2024-01-24T15:10:52.578Z,3.73
2024-01-24T15:13:19.000Z,4.70
2024-01-24T15:15:45.590Z,4.87
2024-01-24T15:18:12.201Z,3.97
2024-01-24T15:20:43.360Z,4.27
2024-01-24T15:23:16.194Z,4.67
2024-01-24T15:25:42.878Z,4.97
2024-01-24T15:28:09.264Z,4.20
2024-01-24T15:30:35.842Z,3.97
2024-01-24T15:33:02.427Z,4.10
2024-01-24T15:35:29.583Z,4.00
2024-01-24T15:37:56.229Z,3.50
2024-01-24T15:40:23.406Z,4.37
2024-01-24T15:42:51.561Z,3.87
2024-01-24T15:45:20.400Z,3.93
2024-01-24T15:47:46.853Z,6.17
2024-01-24T15:50:13.395Z,4.27
2024-01-24T15:52:39.777Z,4.07
2024-01-24T15:55:06.741Z,4.20
2024-01-24T15:57:33.262Z,3.80
2024-01-24T15:59:59.629Z,3.87
2024-01-24T16:02:26.071Z,3.23
2024-01-24T16:04:52.561Z,4.07
2024-01-24T16:07:19.235Z,3.77
2024-01-24T16:09:46.014Z,3.40
2024-01-24T16:12:13.191Z,3.83
2024-01-24T16:14:41.368Z,3.40
2024-01-24T16:17:09.479Z,3.20
2024-01-24T16:19:38.028Z,2.97
2024-01-24T16:22:04.701Z,3.57
2024-01-24T16:24:31.455Z,3.00
2024-01-24T16:26:58.032Z,3.40
2024-01-24T16:29:24.567Z,4.10
2024-01-24T16:31:50.996Z,3.80
2024-01-24T16:34:17.480Z,3.47
2024-01-24T16:36:43.955Z,3.57
2024-01-24T16:39:10.849Z,3.63
2024-01-24T16:41:37.248Z,3.47
2024-01-24T16:44:03.653Z,4.03
2024-01-24T16:46:30.009Z,4.13
2024-01-24T16:48:56.699Z,3.13
2024-01-24T16:51:23.588Z,3.80
2024-01-24T16:53:50.570Z,4.87
2024-01-24T16:56:16.966Z,3.63
2024-01-24T16:58:43.558Z,3.40
2024-01-24T17:01:10.083Z,3.87
2024-01-24T17:03:36.653Z,3.60
2024-01-24T17:06:03.261Z,3.30
2024-01-24T17:08:29.788Z,3.13
2024-01-24T17:10:57.210Z,3.27
2024-01-24T17:13:23.689Z,3.47
2024-01-24T17:15:50.147Z,4.17
2024-01-24T17:18:16.524Z,3.20
2024-01-24T17:20:43.051Z,3.60
2024-01-24T17:23:09.474Z,3.70
2024-01-24T17:25:35.839Z,4.77
2024-01-24T17:28:02.276Z,3.60
2024-01-24T17:30:28.803Z,3.97
2024-01-24T17:32:55.708Z,4.20
2024-01-24T17:35:22.089Z,3.80
2024-01-24T17:37:48.508Z,4.73
2024-01-24T17:40:16.097Z,4.53
2024-01-24T17:42:42.609Z,5.10
2024-01-24T17:45:09.470Z,4.73
2024-01-24T17:47:36.511Z,4.20
2024-01-24T17:50:03.471Z,4.33
2024-01-24T17:52:30.019Z,4.43
2024-01-24T17:55:02.631Z,3.50
2024-01-24T17:57:29.181Z,4.33
2024-01-24T17:59:56.043Z,4.10
2024-01-24T18:02:22.693Z,4.13
2024-01-24T18:04:49.270Z,4.50
2024-01-24T18:07:16.415Z,4.17
2024-01-24T18:09:43.174Z,4.00
2024-01-24T18:12:11.067Z,3.63
2024-01-24T18:14:45.276Z,4.00
2024-01-24T18:17:11.694Z,4.27
2024-01-24T18:19:38.169Z,4.13
2024-01-24T18:22:04.814Z,3.40
2024-01-24T18:24:31.250Z,4.00
2024-01-24T18:26:57.717Z,4.13
2024-01-24T18:29:24.100Z,3.27
2024-01-24T18:31:51.330Z,3.53
2024-01-24T18:34:19.635Z,3.63
2024-01-24T18:36:46.147Z,4.70
2024-01-24T18:39:12.523Z,3.90
2024-01-24T18:41:39.055Z,4.10
2024-01-24T18:44:05.585Z,4.00
2024-01-24T18:46:33.102Z,4.77
2024-01-24T18:49:01.364Z,4.10
2024-01-24T18:51:30.962Z,4.97
2024-01-24T18:53:57.419Z,4.37
2024-01-24T18:56:25.226Z,4.57
2024-01-24T18:58:52.067Z,4.03
2024-01-24T19:01:20.109Z,4.57
2024-01-24T19:03:47.312Z,5.13
2024-01-24T19:06:13.834Z,4.70
2024-01-24T19:08:40.225Z,4.23
2024-01-24T19:11:06.643Z,5.47
2024-01-24T19:13:34.721Z,4.90
2024-01-24T19:16:01.677Z,4.00
2024-01-24T19:18:30.316Z,5.00
2024-01-24T19:20:56.873Z,3.77
2024-01-24T19:23:23.910Z,4.77
2024-01-24T19:25:50.687Z,4.73
2024-01-24T19:28:17.660Z,4.87
2024-01-24T19:30:44.085Z,4.97
2024-01-24T19:33:10.986Z,6.03
2024-01-24T19:35:39.716Z,5.47
2024-01-24T19:38:06.424Z,4.27
2024-01-24T19:40:33.167Z,4.87
2024-01-24T19:43:00.201Z,5.40
2024-01-24T19:45:26.880Z,4.83
2024-01-24T19:47:53.445Z,5.07
2024-01-24T19:50:21.487Z,4.53
2024-01-24T19:52:49.635Z,3.93
2024-01-24T19:55:17.380Z,5.47
2024-01-24T19:57:43.802Z,5.20
2024-01-24T20:00:12.698Z,4.80
2024-01-24T20:02:39.307Z,5.83
2024-01-24T20:05:05.968Z,4.83
2024-01-24T20:07:32.384Z,5.23
2024-01-24T20:09:58.803Z,4.50
2024-01-24T20:12:25.208Z,4.50
2024-01-24T20:14:51.606Z,4.37
2024-01-24T20:17:23.256Z,5.10
2024-01-24T20:19:52.558Z,4.73
2024-01-24T20:22:19.125Z,4.50
2024-01-24T20:24:46.621Z,6.27
2024-01-24T20:27:13.022Z,4.70
2024-01-24T20:29:39.371Z,4.50
2024-01-24T20:32:05.949Z,5.07
2024-01-24T20:34:32.447Z,5.23
2024-01-24T20:36:59.058Z,5.60
2024-01-24T20:39:26.504Z,5.30
2024-01-24T20:41:53.031Z,5.03
2024-01-24T20:44:20.128Z,4.90
2024-01-24T20:46:46.711Z,5.13
2024-01-24T20:49:13.224Z,5.00
2024-01-24T20:51:40.798Z,5.10
2024-01-24T20:54:09.413Z,4.30
2024-01-24T20:56:35.940Z,5.03
2024-01-24T20:59:02.343Z,5.40
2024-01-24T21:01:28.849Z,4.43
2024-01-24T21:03:55.887Z,4.33
2024-01-24T21:06:26.340Z,4.80
2024-01-24T21:08:54.264Z,5.47
2024-01-24T21:11:20.664Z,5.17
2024-01-24T21:13:47.111Z,4.40
2024-01-24T21:16:13.553Z,4.60
2024-01-24T21:18:40.094Z,3.97
2024-01-24T21:21:07.813Z,5.43
2024-01-24T21:23:34.367Z,4.43
2024-01-24T21:26:00.757Z,5.03
2024-01-24T21:28:27.398Z,4.93
2024-01-24T21:30:53.873Z,4.97
2024-01-24T21:33:20.300Z,5.10
2024-01-24T21:35:47.447Z,5.03
2024-01-24T21:38:15.287Z,4.93
2024-01-24T21:40:41.696Z,4.23
2024-01-24T21:43:08.180Z,4.73
2024-01-24T21:45:34.698Z,5.67
2024-01-24T21:48:01.193Z,5.23
2024-01-24T21:50:27.896Z,5.20
2024-01-24T21:52:54.266Z,5.90
2024-01-24T21:55:20.629Z,5.37
2024-01-24T21:57:52.192Z,4.43
2024-01-24T22:00:19.078Z,4.60
2024-01-24T22:02:45.452Z,5.90
2024-01-24T22:05:11.952Z,4.50
2024-01-24T22:07:38.451Z,4.73
2024-01-24T22:10:05.090Z,5.13
2024-01-24T22:12:31.497Z,5.37
2024-01-24T22:14:57.825Z,5.63
2024-01-24T22:17:24.224Z,4.37
2024-01-24T22:19:50.716Z,5.87
2024-01-24T22:22:17.662Z,6.40
2024-01-24T22:24:44.128Z,5.17
2024-01-24T22:27:10.660Z,5.03
2024-01-24T22:29:37.052Z,3.77
2024-01-24T22:32:04.084Z,9.03
2024-01-24T22:34:30.680Z,4.27
2024-01-24T22:36:57.159Z,4.20
2024-01-24T22:39:23.540Z,5.03
2024-01-24T22:41:49.874Z,4.67
2024-01-24T22:44:17.405Z,4.50
2024-01-24T22:46:43.766Z,5.17
2024-01-24T22:49:11.398Z,5.53
2024-01-24T22:51:38.872Z,4.33
2024-01-24T22:54:05.714Z,4.70
2024-01-24T22:56:32.074Z,5.00
2024-01-24T22:58:58.549Z,5.50
2024-01-24T23:01:25.314Z,5.13
2024-01-24T23:03:51.798Z,5.13
2024-01-24T23:06:18.668Z,4.90
2024-01-24T23:08:45.137Z,4.67
2024-01-24T23:11:12.859Z,5.20
2024-01-24T23:13:39.346Z,4.47
2024-01-24T23:16:06.036Z,4.00
2024-01-24T23:18:32.395Z,4.80
2024-01-24T23:21:00.277Z,4.57
2024-01-24T23:23:27.017Z,4.27
2024-01-24T23:25:53.704Z,4.63
2024-01-24T23:28:20.270Z,5.27
2024-01-24T23:30:46.879Z,4.87
2024-01-24T23:33:13.400Z,4.50
2024-01-24T23:35:39.887Z,4.20
2024-01-24T23:38:06.530Z,5.70
2024-01-24T23:40:32.899Z,4.53
2024-01-24T23:42:59.308Z,5.20
2024-01-24T23:45:25.930Z,4.37
2024-01-24T23:47:52.421Z,4.53
2024-01-24T23:50:19.308Z,4.60
2024-01-24T23:52:45.823Z,4.07
2024-01-24T23:55:12.263Z,5.27
2024-01-24T23:57:38.660Z,5.40
